sensor_id;sensor_type;location;lat;lon;timestamp;P1;P2;P0
68713;PMS7003;55690;51.566;19.198;2023-05-29T00:03:56;4;3;2
68713;PMS7003;55690;51.566;19.198;2023-05-29T00:08:03;1;1;1
68713;PMS7003;55690;51.566;19.198;2023-05-29T00:12:09;3;3;2
68713;PMS7003;55690;51.566;19.198;2023-05-29T00:16:15;2;2;2
68713;PMS7003;55690;51.566;19.198;2023-05-29T00:20:21;2;2;2
68713;PMS7003;55690;51.566;19.198;2023-05-29T00:24:27;4;4;4
68713;PMS7003;55690;51.566;19.198;2023-05-29T00:28:34;3;2;2
68713;PMS7003;55690;51.566;19.198;2023-05-29T00:32:40;3;3;2
68713;PMS7003;55690;51.566;19.198;2023-05-29T00:36:46;5;2;2
68713;PMS7003;55690;51.566;19.198;2023-05-29T00:40:52;3;3;2
68713;PMS7003;55690;51.566;19.198;2023-05-29T00:44:58;7;2;2
68713;PMS7003;55690;51.566;19.198;2023-05-29T00:49:04;8;4;3
68713;PMS7003;55690;51.566;19.198;2023-05-29T00:53:10;4;3;2
68713;PMS7003;55690;51.566;19.198;2023-05-29T00:57:17;1;1;1
68713;PMS7003;55690;51.566;19.198;2023-05-29T01:01:23;8;2;2
68713;PMS7003;55690;51.566;19.198;2023-05-29T01:05:29;4;4;3
68713;PMS7003;55690;51.566;19.198;2023-05-29T01:09:35;4;1;1
68713;PMS7003;55690;51.566;19.198;2023-05-29T01:13:41;2;1;1
68713;PMS7003;55690;51.566;19.198;2023-05-29T01:30:27;3;3;2
68713;PMS7003;55690;51.566;19.198;2023-05-29T01:34:32;4;4;3
68713;PMS7003;55690;51.566;19.198;2023-05-29T01:38:34;3;3;2
68713;PMS7003;55690;51.566;19.198;2023-05-29T01:42:36;3;3;2
68713;PMS7003;55690;51.566;19.198;2023-05-29T01:46:38;7;6;5
68713;PMS7003;55690;51.566;19.198;2023-05-29T01:50:41;6;2;2
68713;PMS7003;55690;51.566;19.198;2023-05-29T01:54:44;1;1;1
68713;PMS7003;55690;51.566;19.198;2023-05-29T01:58:49;1;1;1
68713;PMS7003;55690;51.566;19.198;2023-05-29T02:02:55;3;3;3
68713;PMS7003;55690;51.566;19.198;2023-05-29T02:07:02;7;3;3
68713;PMS7003;55690;51.566;19.198;2023-05-29T02:11:08;8;4;3
68713;PMS7003;55690;51.566;19.198;2023-05-29T02:15:14;4;4;4
68713;PMS7003;55690;51.566;19.198;2023-05-29T02:19:20;4;4;3
68713;PMS7003;55690;51.566;19.198;2023-05-29T02:23:26;4;4;4
68713;PMS7003;55690;51.566;19.198;2023-05-29T02:27:33;8;4;4
68713;PMS7003;55690;51.566;19.198;2023-05-29T02:31:39;6;6;4
68713;PMS7003;55690;51.566;19.198;2023-05-29T02:35:45;3;3;2
68713;PMS7003;55690;51.566;19.198;2023-05-29T02:39:51;4;4;4
68713;PMS7003;55690;51.566;19.198;2023-05-29T02:43:57;3;3;2
68713;PMS7003;55690;51.566;19.198;2023-05-29T02:48:03;10;4;2
68713;PMS7003;55690;51.566;19.198;2023-05-29T02:52:10;4;4;3
68713;PMS7003;55690;51.566;19.198;2023-05-29T02:56:16;3;3;2
68713;PMS7003;55690;51.566;19.198;2023-05-29T03:00:22;3;2;2
68713;PMS7003;55690;51.566;19.198;2023-05-29T03:04:28;5;5;4
68713;PMS7003;55690;51.566;19.198;2023-05-29T03:08:34;9;4;3
68713;PMS7003;55690;51.566;19.198;2023-05-29T03:12:41;8;5;4
68713;PMS7003;55690;51.566;19.198;2023-05-29T03:16:47;5;5;4
68713;PMS7003;55690;51.566;19.198;2023-05-29T03:20:53;5;4;3
68713;PMS7003;55690;51.566;19.198;2023-05-29T03:24:59;5;4;3
68713;PMS7003;55690;51.566;19.198;2023-05-29T03:29:05;7;6;4
68713;PMS7003;55690;51.566;19.198;2023-05-29T03:33:11;5;3;1
68713;PMS7003;55690;51.566;19.198;2023-05-29T03:37:17;4;4;3
68713;PMS7003;55690;51.566;19.198;2023-05-29T03:41:24;5;5;5
68713;PMS7003;55690;51.566;19.198;2023-05-29T03:45:30;3;3;3
68713;PMS7003;55690;51.566;19.198;2023-05-29T03:49:36;3;3;2
68713;PMS7003;55690;51.566;19.198;2023-05-29T03:53:42;3;3;3
68713;PMS7003;55690;51.566;19.198;2023-05-29T03:57:48;3;3;3
68713;PMS7003;55690;51.566;19.198;2023-05-29T04:01:55;11;4;4
68713;PMS7003;55690;51.566;19.198;2023-05-29T04:06:01;6;6;6
68713;PMS7003;55690;51.566;19.198;2023-05-29T04:10:07;6;6;6
68713;PMS7003;55690;51.566;19.198;2023-05-29T04:14:13;9;6;5
68713;PMS7003;55690;51.566;19.198;2023-05-29T04:18:20;7;7;5
68713;PMS7003;55690;51.566;19.198;2023-05-29T04:22:25;7;7;7
68713;PMS7003;55690;51.566;19.198;2023-05-29T04:26:32;5;5;3
68713;PMS7003;55690;51.566;19.198;2023-05-29T04:30:38;9;7;6
68713;PMS7003;55690;51.566;19.198;2023-05-29T04:34:44;6;6;5
68713;PMS7003;55690;51.566;19.198;2023-05-29T04:38:50;3;3;3
68713;PMS7003;55690;51.566;19.198;2023-05-29T04:42:56;7;5;4
68713;PMS7003;55690;51.566;19.198;2023-05-29T04:47:03;6;6;5
68713;PMS7003;55690;51.566;19.198;2023-05-29T04:51:09;9;3;3
68713;PMS7003;55690;51.566;19.198;2023-05-29T04:55:15;4;4;4
68713;PMS7003;55690;51.566;19.198;2023-05-29T04:59:21;5;5;4
68713;PMS7003;55690;51.566;19.198;2023-05-29T05:03:27;4;4;4
68713;PMS7003;55690;51.566;19.198;2023-05-29T05:07:33;2;2;1
68713;PMS7003;55690;51.566;19.198;2023-05-29T05:11:39;5;5;4
68713;PMS7003;55690;51.566;19.198;2023-05-29T05:15:46;4;4;3
68713;PMS7003;55690;51.566;19.198;2023-05-29T05:19:52;6;5;5
68713;PMS7003;55690;51.566;19.198;2023-05-29T05:23:59;5;5;5
68713;PMS7003;55690;51.566;19.198;2023-05-29T05:28:04;17;5;4
68713;PMS7003;55690;51.566;19.198;2023-05-29T05:32:10;4;4;3
68713;PMS7003;55690;51.566;19.198;2023-05-29T05:36:17;5;5;5
68713;PMS7003;55690;51.566;19.198;2023-05-29T05:40:23;9;7;5
68713;PMS7003;55690;51.566;19.198;2023-05-29T05:44:29;11;6;5
68713;PMS7003;55690;51.566;19.198;2023-05-29T05:48:35;6;4;3
68713;PMS7003;55690;51.566;19.198;2023-05-29T05:52:41;11;10;8
68713;PMS7003;55690;51.566;19.198;2023-05-29T05:56:47;4;4;4
68713;PMS7003;55690;51.566;19.198;2023-05-29T06:00:54;3;3;3
68713;PMS7003;55690;51.566;19.198;2023-05-29T06:05:00;3;1;0
68713;PMS7003;55690;51.566;19.198;2023-05-29T06:09:06;2;2;2
68713;PMS7003;55690;51.566;19.198;2023-05-29T06:13:12;4;4;4
68713;PMS7003;55690;51.566;19.198;2023-05-29T06:17:19;2;2;2
68713;PMS7003;55690;51.566;19.198;2023-05-29T06:21:24;3;3;3
68713;PMS7003;55690;51.566;19.198;2023-05-29T06:25:30;2;2;2
68713;PMS7003;55690;51.566;19.198;2023-05-29T06:29:37;2;2;2
68713;PMS7003;55690;51.566;19.198;2023-05-29T06:33:43;2;0;0
68713;PMS7003;55690;51.566;19.198;2023-05-29T06:37:49;3;3;2
68713;PMS7003;55690;51.566;19.198;2023-05-29T06:41:55;2;2;1
68713;PMS7003;55690;51.566;19.198;2023-05-29T06:46:01;0;0;0
68713;PMS7003;55690;51.566;19.198;2023-05-29T06:50:08;3;1;1
68713;PMS7003;55690;51.566;19.198;2023-05-29T06:54:14;4;1;1
68713;PMS7003;55690;51.566;19.198;2023-05-29T06:58:20;2;2;1
68713;PMS7003;55690;51.566;19.198;2023-05-29T07:02:26;1;1;1
68713;PMS7003;55690;51.566;19.198;2023-05-29T07:06:32;2;2;1
68713;PMS7003;55690;51.566;19.198;2023-05-29T07:10:38;0;0;0
68713;PMS7003;55690;51.566;19.198;2023-05-29T07:14:44;1;1;1
68713;PMS7003;55690;51.566;19.198;2023-05-29T07:18:51;2;2;2
68713;PMS7003;55690;51.566;19.198;2023-05-29T07:22:57;2;1;1
68713;PMS7003;55690;51.566;19.198;2023-05-29T07:27:03;2;2;2
68713;PMS7003;55690;51.566;19.198;2023-05-29T07:31:09;3;3;3
68713;PMS7003;55690;51.566;19.198;2023-05-29T07:35:15;5;2;2
68713;PMS7003;55690;51.566;19.198;2023-05-29T07:39:21;2;2;2
68713;PMS7003;55690;51.566;19.198;2023-05-29T07:43:28;3;3;2
68713;PMS7003;55690;51.566;19.198;2023-05-29T07:47:34;2;2;2
68713;PMS7003;55690;51.566;19.198;2023-05-29T07:51:40;1;1;1
68713;PMS7003;55690;51.566;19.198;2023-05-29T07:55:46;2;2;2
68713;PMS7003;55690;51.566;19.198;2023-05-29T07:59:52;3;3;2
68713;PMS7003;55690;51.566;19.198;2023-05-29T08:03:58;4;4;3
68713;PMS7003;55690;51.566;19.198;2023-05-29T08:08:04;7;3;3
68713;PMS7003;55690;51.566;19.198;2023-05-29T08:12:11;2;2;2
68713;PMS7003;55690;51.566;19.198;2023-05-29T08:16:17;2;2;2
68713;PMS7003;55690;51.566;19.198;2023-05-29T08:20:23;3;1;0
68713;PMS7003;55690;51.566;19.198;2023-05-29T08:24:29;2;2;1
68713;PMS7003;55690;51.566;19.198;2023-05-29T08:28:35;1;1;1
68713;PMS7003;55690;51.566;19.198;2023-05-29T08:32:41;2;0;0
68713;PMS7003;55690;51.566;19.198;2023-05-29T08:36:48;0;0;0
68713;PMS7003;55690;51.566;19.198;2023-05-29T08:40:54;1;1;1
68713;PMS7003;55690;51.566;19.198;2023-05-29T08:45:02;2;2;2
68713;PMS7003;55690;51.566;19.198;2023-05-29T08:49:08;1;1;1
68713;PMS7003;55690;51.566;19.198;2023-05-29T08:53:14;2;1;1
68713;PMS7003;55690;51.566;19.198;2023-05-29T08:57:18;5;1;1
68713;PMS7003;55690;51.566;19.198;2023-05-29T09:01:25;2;0;0
68713;PMS7003;55690;51.566;19.198;2023-05-29T09:05:31;6;2;2
68713;PMS7003;55690;51.566;19.198;2023-05-29T09:09:37;0;0;0
68713;PMS7003;55690;51.566;19.198;2023-05-29T09:13:43;1;1;1
68713;PMS7003;55690;51.566;19.198;2023-05-29T09:17:50;1;0;0
68713;PMS7003;55690;51.566;19.198;2023-05-29T09:22:05;4;2;0
68713;PMS7003;55690;51.566;19.198;2023-05-29T09:26:04;2;2;2
68713;PMS7003;55690;51.566;19.198;2023-05-29T09:30:09;0;0;0
68713;PMS7003;55690;51.566;19.198;2023-05-29T09:34:14;2;2;2
68713;PMS7003;55690;51.566;19.198;2023-05-29T09:38:20;1;1;1
68713;PMS7003;55690;51.566;19.198;2023-05-29T09:42:26;2;2;2
68713;PMS7003;55690;51.566;19.198;2023-05-29T09:46:35;0;0;0
68713;PMS7003;55690;51.566;19.198;2023-05-29T09:50:39;3;2;1
68713;PMS7003;55690;51.566;19.198;2023-05-29T09:54:46;2;2;2
68713;PMS7003;55690;51.566;19.198;2023-05-29T09:58:51;2;2;2
68713;PMS7003;55690;51.566;19.198;2023-05-29T10:02:57;3;3;3
68713;PMS7003;55690;51.566;19.198;2023-05-29T10:11:13;0;0;0
68713;PMS7003;55690;51.566;19.198;2023-05-29T10:15:17;8;0;0
68713;PMS7003;55690;51.566;19.198;2023-05-29T10:19:24;2;2;2
68713;PMS7003;55690;51.566;19.198;2023-05-29T10:23:28;1;1;1
68713;PMS7003;55690;51.566;19.198;2023-05-29T10:27:34;3;2;2
68713;PMS7003;55690;51.566;19.198;2023-05-29T10:35:54;0;0;0
68713;PMS7003;55690;51.566;19.198;2023-05-29T10:52:37;0;0;0
68713;PMS7003;55690;51.566;19.198;2023-05-29T10:56:52;0;0;0
68713;PMS7003;55690;51.566;19.198;2023-05-29T11:00:57;1;1;1
68713;PMS7003;55690;51.566;19.198;2023-05-29T11:09:58;1;1;0
68713;PMS7003;55690;51.566;19.198;2023-05-29T11:13:26;1;1;1
68713;PMS7003;55690;51.566;19.198;2023-05-29T11:17:32;1;0;0
68713;PMS7003;55690;51.566;19.198;2023-05-29T11:25:54;1;1;1
68713;PMS7003;55690;51.566;19.198;2023-05-29T11:29:56;9;2;2
68713;PMS7003;55690;51.566;19.198;2023-05-29T11:33:59;4;1;1
68713;PMS7003;55690;51.566;19.198;2023-05-29T11:38:05;6;2;1
68713;PMS7003;55690;51.566;19.198;2023-05-29T11:42:06;3;3;3
68713;PMS7003;55690;51.566;19.198;2023-05-29T11:50:21;1;1;1
68713;PMS7003;55690;51.566;19.198;2023-05-29T11:54:24;1;1;1
68713;PMS7003;55690;51.566;19.198;2023-05-29T11:58:26;2;2;2
68713;PMS7003;55690;51.566;19.198;2023-05-29T12:02:30;0;0;0
68713;PMS7003;55690;51.566;19.198;2023-05-29T12:06:34;2;2;2
68713;PMS7003;55690;51.566;19.198;2023-05-29T12:10:46;2;2;2
68713;PMS7003;55690;51.566;19.198;2023-05-29T12:14:51;1;1;1
68713;PMS7003;55690;51.566;19.198;2023-05-29T12:18:54;9;2;2
68713;PMS7003;55690;51.566;19.198;2023-05-29T12:23:02;0;0;0
68713;PMS7003;55690;51.566;19.198;2023-05-29T12:27:04;4;1;1
68713;PMS7003;55690;51.566;19.198;2023-05-29T12:31:08;3;1;1
68713;PMS7003;55690;51.566;19.198;2023-05-29T12:35:11;1;1;1
68713;PMS7003;55690;51.566;19.198;2023-05-29T12:39:19;1;1;1
68713;PMS7003;55690;51.566;19.198;2023-05-29T12:43:20;1;1;0
68713;PMS7003;55690;51.566;19.198;2023-05-29T12:47:23;1;1;1
68713;PMS7003;55690;51.566;19.198;2023-05-29T12:51:26;2;2;2
68713;PMS7003;55690;51.566;19.198;2023-05-29T12:55:28;2;2;2
68713;PMS7003;55690;51.566;19.198;2023-05-29T12:59:34;3;1;1
68713;PMS7003;55690;51.566;19.198;2023-05-29T13:03:35;2;2;2
68713;PMS7003;55690;51.566;19.198;2023-05-29T13:07:37;1;0;0
68713;PMS7003;55690;51.566;19.198;2023-05-29T13:11:40;1;1;1
68713;PMS7003;55690;51.566;19.198;2023-05-29T13:15:46;4;4;3
68713;PMS7003;55690;51.566;19.198;2023-05-29T13:19:52;1;0;0
68713;PMS7003;55690;51.566;19.198;2023-05-29T13:23:58;2;2;2
68713;PMS7003;55690;51.566;19.198;2023-05-29T13:28:05;3;2;1
68713;PMS7003;55690;51.566;19.198;2023-05-29T13:32:11;2;2;2
68713;PMS7003;55690;51.566;19.198;2023-05-29T13:36:17;3;3;3
68713;PMS7003;55690;51.566;19.198;2023-05-29T13:40:23;1;1;1
68713;PMS7003;55690;51.566;19.198;2023-05-29T13:44:29;1;1;1
68713;PMS7003;55690;51.566;19.198;2023-05-29T13:48:35;1;1;1
68713;PMS7003;55690;51.566;19.198;2023-05-29T13:52:41;3;3;3
68713;PMS7003;55690;51.566;19.198;2023-05-29T13:56:48;0;0;0
68713;PMS7003;55690;51.566;19.198;2023-05-29T14:00:54;2;2;2
68713;PMS7003;55690;51.566;19.198;2023-05-29T14:05:00;1;1;1
68713;PMS7003;55690;51.566;19.198;2023-05-29T14:09:06;1;1;1
68713;PMS7003;55690;51.566;19.198;2023-05-29T14:13:12;2;2;1
68713;PMS7003;55690;51.566;19.198;2023-05-29T14:17:18;1;1;1
68713;PMS7003;55690;51.566;19.198;2023-05-29T14:21:25;1;1;1
68713;PMS7003;55690;51.566;19.198;2023-05-29T14:25:31;0;0;0
68713;PMS7003;55690;51.566;19.198;2023-05-29T14:29:37;3;3;1
68713;PMS7003;55690;51.566;19.198;2023-05-29T14:33:43;2;0;0
68713;PMS7003;55690;51.566;19.198;2023-05-29T14:37:49;3;3;3
68713;PMS7003;55690;51.566;19.198;2023-05-29T14:41:55;1;1;1
68713;PMS7003;55690;51.566;19.198;2023-05-29T14:46:01;2;2;2
68713;PMS7003;55690;51.566;19.198;2023-05-29T14:50:08;0;0;0
68713;PMS7003;55690;51.566;19.198;2023-05-29T14:54:14;2;2;2
68713;PMS7003;55690;51.566;19.198;2023-05-29T14:58:20;1;1;1
68713;PMS7003;55690;51.566;19.198;2023-05-29T15:02:26;2;2;1
68713;PMS7003;55690;51.566;19.198;2023-05-29T15:06:32;6;2;2
68713;PMS7003;55690;51.566;19.198;2023-05-29T15:10:38;2;2;2
68713;PMS7003;55690;51.566;19.198;2023-05-29T15:14:45;1;1;1
68713;PMS7003;55690;51.566;19.198;2023-05-29T15:18:51;1;1;1
68713;PMS7003;55690;51.566;19.198;2023-05-29T15:22:57;2;2;2
68713;PMS7003;55690;51.566;19.198;2023-05-29T15:27:03;2;2;2
68713;PMS7003;55690;51.566;19.198;2023-05-29T15:31:09;3;3;3
68713;PMS7003;55690;51.566;19.198;2023-05-29T15:35:15;0;0;0
68713;PMS7003;55690;51.566;19.198;2023-05-29T15:39:21;0;0;0
68713;PMS7003;55690;51.566;19.198;2023-05-29T15:43:28;2;2;1
68713;PMS7003;55690;51.566;19.198;2023-05-29T15:47:34;3;0;0
68713;PMS7003;55690;51.566;19.198;2023-05-29T15:51:40;1;1;1
68713;PMS7003;55690;51.566;19.198;2023-05-29T15:55:46;1;1;0
68713;PMS7003;55690;51.566;19.198;2023-05-29T15:59:52;6;0;0
68713;PMS7003;55690;51.566;19.198;2023-05-29T16:03:58;2;2;1
68713;PMS7003;55690;51.566;19.198;2023-05-29T16:08:05;4;4;3
68713;PMS7003;55690;51.566;19.198;2023-05-29T16:12:11;2;2;2
68713;PMS7003;55690;51.566;19.198;2023-05-29T16:16:17;2;2;2
68713;PMS7003;55690;51.566;19.198;2023-05-29T16:20:23;3;2;1
68713;PMS7003;55690;51.566;19.198;2023-05-29T16:24:29;2;2;2
68713;PMS7003;55690;51.566;19.198;2023-05-29T16:28:35;4;2;1
68713;PMS7003;55690;51.566;19.198;2023-05-29T16:32:42;6;1;1
68713;PMS7003;55690;51.566;19.198;2023-05-29T16:36:48;1;1;1
68713;PMS7003;55690;51.566;19.198;2023-05-29T16:40:54;2;2;2
68713;PMS7003;55690;51.566;19.198;2023-05-29T16:45:00;1;1;1
68713;PMS7003;55690;51.566;19.198;2023-05-29T16:49:06;5;2;2
68713;PMS7003;55690;51.566;19.198;2023-05-29T16:53:13;2;2;2
68713;PMS7003;55690;51.566;19.198;2023-05-29T16:57:18;2;1;1
68713;PMS7003;55690;51.566;19.198;2023-05-29T17:01:25;2;2;2
68713;PMS7003;55690;51.566;19.198;2023-05-29T17:05:31;2;2;2
68713;PMS7003;55690;51.566;19.198;2023-05-29T17:09:37;0;0;0
68713;PMS7003;55690;51.566;19.198;2023-05-29T17:13:43;1;1;1
68713;PMS7003;55690;51.566;19.198;2023-05-29T17:17:49;1;1;1
68713;PMS7003;55690;51.566;19.198;2023-05-29T17:21:55;2;2;2
68713;PMS7003;55690;51.566;19.198;2023-05-29T17:26:04;3;3;2
68713;PMS7003;55690;51.566;19.198;2023-05-29T17:30:11;5;5;4
68713;PMS7003;55690;51.566;19.198;2023-05-29T17:34:16;4;4;4
68713;PMS7003;55690;51.566;19.198;2023-05-29T17:38:23;4;4;4
68713;PMS7003;55690;51.566;19.198;2023-05-29T17:42:29;3;3;2
68713;PMS7003;55690;51.566;19.198;2023-05-29T17:46:35;5;4;3
68713;PMS7003;55690;51.566;19.198;2023-05-29T17:50:41;15;3;3
68713;PMS7003;55690;51.566;19.198;2023-05-29T17:54:48;1;0;0
68713;PMS7003;55690;51.566;19.198;2023-05-29T17:58:53;3;3;3
68713;PMS7003;55690;51.566;19.198;2023-05-29T18:02:59;4;3;3
68713;PMS7003;55690;51.566;19.198;2023-05-29T18:07:06;2;2;2
68713;PMS7003;55690;51.566;19.198;2023-05-29T18:11:12;2;2;1
68713;PMS7003;55690;51.566;19.198;2023-05-29T18:15:18;13;6;5
68713;PMS7003;55690;51.566;19.198;2023-05-29T18:19:24;4;4;3
68713;PMS7003;55690;51.566;19.198;2023-05-29T18:23:30;5;2;2
68713;PMS7003;55690;51.566;19.198;2023-05-29T18:27:36;7;4;4
68713;PMS7003;55690;51.566;19.198;2023-05-29T18:31:43;4;3;3
68713;PMS7003;55690;51.566;19.198;2023-05-29T18:35:49;7;4;3
68713;PMS7003;55690;51.566;19.198;2023-05-29T18:39:55;3;3;3
68713;PMS7003;55690;51.566;19.198;2023-05-29T18:44:01;6;6;5
68713;PMS7003;55690;51.566;19.198;2023-05-29T18:48:07;4;4;4
68713;PMS7003;55690;51.566;19.198;2023-05-29T18:52:13;8;7;4
68713;PMS7003;55690;51.566;19.198;2023-05-29T18:56:20;5;3;3
68713;PMS7003;55690;51.566;19.198;2023-05-29T19:00:26;7;4;4
68713;PMS7003;55690;51.566;19.198;2023-05-29T19:04:32;3;3;3
68713;PMS7003;55690;51.566;19.198;2023-05-29T19:08:38;5;4;4
68713;PMS7003;55690;51.566;19.198;2023-05-29T19:12:44;5;5;4
68713;PMS7003;55690;51.566;19.198;2023-05-29T19:16:50;14;6;4
68713;PMS7003;55690;51.566;19.198;2023-05-29T19:20:57;8;8;7
68713;PMS7003;55690;51.566;19.198;2023-05-29T19:25:03;4;4;4
68713;PMS7003;55690;51.566;19.198;2023-05-29T19:29:09;8;8;7
68713;PMS7003;55690;51.566;19.198;2023-05-29T19:33:15;6;6;4
68713;PMS7003;55690;51.566;19.198;2023-05-29T19:37:21;4;4;4
68713;PMS7003;55690;51.566;19.198;2023-05-29T19:41:27;6;4;2
68713;PMS7003;55690;51.566;19.198;2023-05-29T19:45:34;6;5;4
68713;PMS7003;55690;51.566;19.198;2023-05-29T19:49:40;5;5;4
68713;PMS7003;55690;51.566;19.198;2023-05-29T19:53:46;6;6;4
68713;PMS7003;55690;51.566;19.198;2023-05-29T19:57:52;5;5;4
68713;PMS7003;55690;51.566;19.198;2023-05-29T20:01:58;13;8;6
68713;PMS7003;55690;51.566;19.198;2023-05-29T20:06:05;8;4;4
68713;PMS7003;55690;51.566;19.198;2023-05-29T20:10:11;5;5;4
68713;PMS7003;55690;51.566;19.198;2023-05-29T20:14:17;9;5;5
68713;PMS7003;55690;51.566;19.198;2023-05-29T20:18:23;8;6;5
68713;PMS7003;55690;51.566;19.198;2023-05-29T20:22:29;9;9;5
68713;PMS7003;55690;51.566;19.198;2023-05-29T20:26:35;5;5;4
68713;PMS7003;55690;51.566;19.198;2023-05-29T20:30:41;11;9;7
68713;PMS7003;55690;51.566;19.198;2023-05-29T20:34:47;7;5;5
68713;PMS7003;55690;51.566;19.198;2023-05-29T20:38:54;7;5;4
68713;PMS7003;55690;51.566;19.198;2023-05-29T20:43:00;9;6;5
68713;PMS7003;55690;51.566;19.198;2023-05-29T20:47:06;8;8;7
68713;PMS7003;55690;51.566;19.198;2023-05-29T20:51:13;6;6;5
68713;PMS7003;55690;51.566;19.198;2023-05-29T20:55:18;6;6;6
68713;PMS7003;55690;51.566;19.198;2023-05-29T20:59:24;8;5;5
68713;PMS7003;55690;51.566;19.198;2023-05-29T21:03:31;11;7;5
68713;PMS7003;55690;51.566;19.198;2023-05-29T21:07:37;6;4;4
68713;PMS7003;55690;51.566;19.198;2023-05-29T21:11:43;5;5;4
68713;PMS7003;55690;51.566;19.198;2023-05-29T21:15:49;7;7;6
68713;PMS7003;55690;51.566;19.198;2023-05-29T21:19:55;5;5;4
68713;PMS7003;55690;51.566;19.198;2023-05-29T21:24:01;8;6;4
68713;PMS7003;55690;51.566;19.198;2023-05-29T21:28:12;4;4;4
68713;PMS7003;55690;51.566;19.198;2023-05-29T21:32:14;7;6;5
68713;PMS7003;55690;51.566;19.198;2023-05-29T21:36:20;6;5;4
68713;PMS7003;55690;51.566;19.198;2023-05-29T21:40:26;7;7;6
68713;PMS7003;55690;51.566;19.198;2023-05-29T21:44:32;8;7;6
68713;PMS7003;55690;51.566;19.198;2023-05-29T21:48:38;9;9;8
68713;PMS7003;55690;51.566;19.198;2023-05-29T21:52:45;5;5;4
68713;PMS7003;55690;51.566;19.198;2023-05-29T21:56:51;6;6;6
68713;PMS7003;55690;51.566;19.198;2023-05-29T22:00:57;8;7;7
68713;PMS7003;55690;51.566;19.198;2023-05-29T22:05:03;5;5;5
68713;PMS7003;55690;51.566;19.198;2023-05-29T22:09:09;11;8;7
68713;PMS7003;55690;51.566;19.198;2023-05-29T22:13:15;6;5;5
68713;PMS7003;55690;51.566;19.198;2023-05-29T22:17:22;11;7;6
68713;PMS7003;55690;51.566;19.198;2023-05-29T22:21:28;8;8;6
68713;PMS7003;55690;51.566;19.198;2023-05-29T22:25:34;8;6;5
68713;PMS7003;55690;51.566;19.198;2023-05-29T22:29:40;13;13;9
68713;PMS7003;55690;51.566;19.198;2023-05-29T22:33:46;10;8;6
68713;PMS7003;55690;51.566;19.198;2023-05-29T22:37:52;13;12;7
68713;PMS7003;55690;51.566;19.198;2023-05-29T22:41:59;9;8;7
68713;PMS7003;55690;51.566;19.198;2023-05-29T22:46:05;11;8;7
68713;PMS7003;55690;51.566;19.198;2023-05-29T22:50:11;7;7;6
68713;PMS7003;55690;51.566;19.198;2023-05-29T22:54:18;7;6;5
68713;PMS7003;55690;51.566;19.198;2023-05-29T22:58:23;8;7;6
68713;PMS7003;55690;51.566;19.198;2023-05-29T23:02:29;8;6;6
68713;PMS7003;55690;51.566;19.198;2023-05-29T23:06:36;9;8;8
68713;PMS7003;55690;51.566;19.198;2023-05-29T23:10:42;6;2;1
68713;PMS7003;55690;51.566;19.198;2023-05-29T23:14:48;5;5;5
68713;PMS7003;55690;51.566;19.198;2023-05-29T23:18:54;4;4;3
68713;PMS7003;55690;51.566;19.198;2023-05-29T23:23:00;5;5;4
68713;PMS7003;55690;51.566;19.198;2023-05-29T23:27:06;12;7;6
68713;PMS7003;55690;51.566;19.198;2023-05-29T23:31:13;3;3;2
68713;PMS7003;55690;51.566;19.198;2023-05-29T23:35:19;9;8;8
68713;PMS7003;55690;51.566;19.198;2023-05-29T23:39:25;6;5;5
68713;PMS7003;55690;51.566;19.198;2023-05-29T23:43:31;4;4;3
68713;PMS7003;55690;51.566;19.198;2023-05-29T23:47:37;3;3;3
68713;PMS7003;55690;51.566;19.198;2023-05-29T23:51:43;8;7;5
68713;PMS7003;55690;51.566;19.198;2023-05-29T23:55:50;4;4;3
68713;PMS7003;55690;51.566;19.198;2023-05-29T23:59:56;4;4;3
